Friday, November 24, 2017, 8:17 AM EST
Back to Local

KMQE, Milton Blue Hill Observ

Location: Milton, MA, United States Lat: 42.217
Local Time: 8:17 AM EST (13:17 GMT) Lon: -71.117
Time Zone: US/Eastern Elev: 629 ft

Show me the last for .
Show Decoded

2017-11-24 06:56 METAR KMQE 241156Z AUTO 23008KT M01/M07 A2998 RMK AO1 SLP168 T10061067 11006
                 21017 52009 =
2017-11-24 05:56 METAR KMQE 241056Z AUTO 25009KT M01/M07 A2997 RMK AO1 SLP164 T10061067 =
2017-11-24 04:56 METAR KMQE 240956Z AUTO 25008KT M01/M07 A2997 RMK AO1 SLP164 T10111072 =
2017-11-24 03:56 METAR KMQE 240856Z AUTO 26011KT M01/M07 A2995 RMK AO1 SLP160 T10061072 51003 =
2017-11-24 01:56 METAR KMQE 240656Z AUTO 25009KT M02/M08 A2996 RMK AO1 SLP161 T10171078 =
2017-11-23 20:56 METAR KMQE 240156Z AUTO 29007KT 00/M07 A2994 RMK AO1 SLP156 T00001072 =
2017-11-23 19:56 METAR KMQE 240056Z AUTO 29008KT 01/M08 A2995 RMK AO1 SLP158 T00061083 =
2017-11-23 18:56 METAR KMQE 232356Z AUTO 28010KT 01/M08 A2994 RMK AO1 SLP157 T00111083 10050
                 20011 50001 =
2017-11-23 17:56 METAR KMQE 232256Z AUTO 27008KT 02/M09 A2995 RMK AO1 SLP159 T00171094 =
2017-11-23 16:56 METAR KMQE 232156Z AUTO 26008KT 02/M09 A2995 RMK AO1 SLP158 T00171094 =
2017-11-23 15:56 METAR KMQE 232056Z AUTO 29003KT 03/M10 A2994 RMK AO1 SLP155 T00331100 56004 =
2017-11-23 14:56 METAR KMQE 231956Z AUTO 28005KT 04/M09 A2994 RMK AO1 SLP155 T00391094 =
2017-11-23 13:56 METAR KMQE 231856Z AUTO 31007KT 04/M09 A2994 RMK AO1 SLP156 T00441094 =
2017-11-23 12:56 METAR KMQE 231756Z AUTO 27010KT 04/M09 A2995 RMK AO1 SLP158 T00391089 10044
                 21022 58008 =
2017-11-23 11:56 METAR KMQE 231656Z AUTO 28010KT 03/M08 A2996 RMK AO1 SLP162 T00281083 =
2017-11-23 10:56 METAR KMQE 231556Z AUTO 31009KT 02/M08 A2997 RMK AO1 SLP165 T00171083 =
2017-11-23 09:56 METAR KMQE 231456Z AUTO 29006KT 01/M08 A2998 RMK AO1 SLP168 T00061078 58002 =
2017-11-23 08:56 METAR KMQE 231356Z AUTO 32007KT M01/M07 A2998 RMK AO1 SLP169 T10061072 =

Support USWX by starting your Amazon purchase here.